createdAt,value
2023-01-08T00:00:40.007Z,74.10
2023-01-08T00:01:41.605Z,74.12
2023-01-08T00:02:43.161Z,74.31
2023-01-08T00:03:44.915Z,74.46
2023-01-08T00:04:46.502Z,74.30
2023-01-08T00:05:48.045Z,74.36
2023-01-08T00:06:49.552Z,74.67
2023-01-08T00:07:51.117Z,75.13
2023-01-08T00:08:52.613Z,75.01
2023-01-08T00:09:54.994Z,74.89
2023-01-08T00:10:56.762Z,74.52
2023-01-08T00:11:58.229Z,74.47
2023-01-08T00:12:59.711Z,74.50
2023-01-08T00:14:01.222Z,74.42
2023-01-08T00:15:02.739Z,74.04
2023-01-08T00:16:07.999Z,73.87
2023-01-08T00:17:09.559Z,73.87
2023-01-08T00:18:11.056Z,73.80
2023-01-08T00:19:12.623Z,73.56
2023-01-08T00:20:14.240Z,73.09
2023-01-08T00:21:15.751Z,73.31
2023-01-08T00:22:17.319Z,73.02
2023-01-08T00:23:19.251Z,72.79
2023-01-08T00:24:20.920Z,72.36
2023-01-08T00:25:22.399Z,72.20
2023-01-08T00:26:23.898Z,72.15
2023-01-08T00:27:26.567Z,72.46
2023-01-08T00:28:28.255Z,72.31
2023-01-08T00:29:29.814Z,71.91
2023-01-08T00:30:31.307Z,71.85
2023-01-08T00:31:32.858Z,71.38
2023-01-08T00:32:34.365Z,71.29
2023-01-08T00:33:36.021Z,71.28
2023-01-08T00:34:37.539Z,70.91
2023-01-08T00:35:39.042Z,70.86
2023-01-08T00:36:40.523Z,70.79
2023-01-08T00:37:42.056Z,70.45
2023-01-08T00:38:43.746Z,70.27
2023-01-08T00:39:45.281Z,70.11
2023-01-08T00:40:47.935Z,70.46
2023-01-08T00:41:49.727Z,70.18
2023-01-08T00:42:51.241Z,69.85
2023-01-08T00:43:52.775Z,70.23
2023-01-08T00:44:54.424Z,69.83
2023-01-08T00:45:56.009Z,69.83
2023-01-08T00:46:57.539Z,70.07
2023-01-08T00:47:59.117Z,69.88
2023-01-08T00:49:00.857Z,70.02
2023-01-08T00:50:02.352Z,70.27
2023-01-08T00:51:03.962Z,70.21
2023-01-08T00:52:07.619Z,70.24
2023-01-08T00:53:09.272Z,70.17
2023-01-08T00:54:11.221Z,70.16
2023-01-08T00:55:12.724Z,70.25
2023-01-08T00:56:14.231Z,70.49
2023-01-08T00:57:15.785Z,70.35
2023-01-08T00:58:17.349Z,70.80
2023-01-08T00:59:18.908Z,71.11
2023-01-08T01:00:20.390Z,71.59
2023-01-08T01:01:22.097Z,71.48
2023-01-08T01:02:23.751Z,71.29
2023-01-08T01:03:25.314Z,71.15
2023-01-08T01:04:26.977Z,71.19
2023-01-08T01:05:28.561Z,71.35
2023-01-08T01:06:30.048Z,71.25
2023-01-08T01:07:31.951Z,70.80
2023-01-08T01:08:33.844Z,71.39
2023-01-08T01:09:35.375Z,71.67
2023-01-08T01:10:38.485Z,71.99
2023-01-08T01:11:39.968Z,72.49
2023-01-08T01:12:41.544Z,72.90
2023-01-08T01:13:43.119Z,72.98
2023-01-08T01:14:44.601Z,73.32
2023-01-08T01:15:46.082Z,73.06
2023-01-08T01:16:48.715Z,73.18
2023-01-08T01:17:50.326Z,73.19
2023-01-08T01:18:52.499Z,73.48
2023-01-08T01:19:54.174Z,73.31
2023-01-08T01:20:55.717Z,73.34
2023-01-08T01:21:57.298Z,73.20
2023-01-08T01:22:58.834Z,72.85
2023-01-08T01:24:01.098Z,72.74
2023-01-08T01:25:02.624Z,72.61
2023-01-08T01:26:04.221Z,72.77
2023-01-08T01:27:05.718Z,72.58
2023-01-08T01:28:07.213Z,72.62
2023-01-08T01:29:08.795Z,73.10
2023-01-08T01:30:10.511Z,73.57
2023-01-08T01:31:12.598Z,73.56
2023-01-08T01:32:14.101Z,73.68
2023-01-08T01:33:15.717Z,74.17
2023-01-08T01:34:17.241Z,74.00
2023-01-08T01:35:18.711Z,73.85
2023-01-08T01:36:20.832Z,74.03
2023-01-08T01:37:22.397Z,73.98
2023-01-08T01:38:23.928Z,74.07
2023-01-08T01:39:25.400Z,74.06
2023-01-08T01:40:26.923Z,74.02
2023-01-08T01:41:29.791Z,73.76
2023-01-08T01:42:40.127Z,73.60
2023-01-08T01:43:42.268Z,73.72
2023-01-08T01:44:44.705Z,73.28
2023-01-08T01:45:46.244Z,72.97
2023-01-08T01:46:47.772Z,72.66
2023-01-08T01:48:09.553Z,73.08
2023-01-08T01:49:11.731Z,72.86
2023-01-08T01:50:22.610Z,73.13
2023-01-08T01:51:24.153Z,73.00
2023-01-08T01:52:27.810Z,73.09
2023-01-08T01:53:30.495Z,72.87
2023-01-08T01:54:31.991Z,73.02
2023-01-08T01:55:33.538Z,73.35
2023-01-08T01:56:35.037Z,73.34
2023-01-08T01:57:36.548Z,73.35
2023-01-08T01:58:38.062Z,73.30
2023-01-08T01:59:39.520Z,73.57
2023-01-08T02:00:41.453Z,73.35
2023-01-08T02:01:43.087Z,73.52
2023-01-08T02:02:44.789Z,73.86
2023-01-08T02:03:46.477Z,73.43
2023-01-08T02:04:47.970Z,73.64
2023-01-08T02:06:07.986Z,73.88
2023-01-08T02:07:27.687Z,73.69
2023-01-08T02:08:29.226Z,73.69
2023-01-08T02:09:43.717Z,73.89
2023-01-08T02:10:49.206Z,73.89
2023-01-08T02:12:16.806Z,74.17
2023-01-08T02:13:20.712Z,73.80
2023-01-08T02:14:28.036Z,74.21
2023-01-08T02:15:32.583Z,74.51
2023-01-08T02:16:40.360Z,74.47
2023-01-08T02:17:48.269Z,75.26
2023-01-08T02:19:00.865Z,75.31
2023-01-08T02:20:22.648Z,75.53
2023-01-08T02:21:50.329Z,75.42
2023-01-08T02:22:54.752Z,75.04
2023-01-08T02:23:59.203Z,75.07
2023-01-08T02:25:06.346Z,75.60
2023-01-08T02:26:07.781Z,75.48
2023-01-08T02:27:09.287Z,75.66
2023-01-08T02:28:11.241Z,75.50
2023-01-08T02:29:16.175Z,75.64
2023-01-08T02:30:17.841Z,75.26
2023-01-08T02:31:19.732Z,75.39
2023-01-08T02:32:27.691Z,75.19
2023-01-08T02:33:29.311Z,75.11
2023-01-08T02:34:32.480Z,75.15
2023-01-08T02:35:35.771Z,74.90
2023-01-08T02:36:37.412Z,74.94
2023-01-08T02:37:38.959Z,74.81
2023-01-08T02:38:41.859Z,74.58
2023-01-08T02:39:45.819Z,74.28
2023-01-08T02:41:07.556Z,74.33
2023-01-08T02:42:23.804Z,74.33
2023-01-08T02:43:36.737Z,74.19
2023-01-08T02:44:57.010Z,74.30
2023-01-08T02:45:59.467Z,74.34
2023-01-08T02:47:01.022Z,74.17
2023-01-08T02:48:04.097Z,74.33
2023-01-08T02:49:07.364Z,74.92
2023-01-08T02:50:46.952Z,75.11
2023-01-08T02:51:49.698Z,75.13
2023-01-08T02:53:09.790Z,75.21
2023-01-08T02:54:12.091Z,74.82
2023-01-08T02:55:13.541Z,74.75
2023-01-08T02:56:16.468Z,74.89
2023-01-08T02:57:17.991Z,74.72
2023-01-08T02:58:19.508Z,75.08
2023-01-08T02:59:21.180Z,75.05
2023-01-08T03:00:22.847Z,74.98
2023-01-08T03:01:24.423Z,74.73
2023-01-08T03:02:26.237Z,74.66
2023-01-08T03:03:28.252Z,74.92
2023-01-08T03:04:30.601Z,74.67
2023-01-08T03:05:32.167Z,74.56
2023-01-08T03:06:33.656Z,74.23
2023-01-08T03:07:35.255Z,74.52
2023-01-08T03:08:39.310Z,74.18
2023-01-08T03:09:40.783Z,74.88
2023-01-08T03:10:42.695Z,74.86
2023-01-08T03:11:45.777Z,74.99
2023-01-08T03:12:49.379Z,75.27
2023-01-08T03:14:11.176Z,75.24
2023-01-08T03:15:17.027Z,74.92
2023-01-08T03:16:20.410Z,75.00
2023-01-08T03:17:23.990Z,75.26
2023-01-08T03:18:27.328Z,75.08
2023-01-08T03:19:30.295Z,75.06
2023-01-08T03:20:31.784Z,74.84
2023-01-08T03:21:33.261Z,75.01
2023-01-08T03:22:35.626Z,75.37
2023-01-08T03:23:37.091Z,75.46
2023-01-08T03:24:38.797Z,75.71
2023-01-08T03:25:41.507Z,75.73
2023-01-08T03:26:43.111Z,76.00
2023-01-08T03:27:45.689Z,75.57
2023-01-08T03:28:47.883Z,75.62
2023-01-08T03:29:49.731Z,75.61
2023-01-08T03:30:51.297Z,75.30
2023-01-08T03:31:53.200Z,75.60
2023-01-08T03:32:54.810Z,75.71
2023-01-08T03:33:56.311Z,75.48
2023-01-08T03:34:57.849Z,75.40
2023-01-08T03:35:59.800Z,75.62
2023-01-08T03:37:01.719Z,76.31
2023-01-08T03:38:04.738Z,76.34
2023-01-08T03:39:16.744Z,76.42
2023-01-08T03:40:22.090Z,76.62
2023-01-08T03:41:23.720Z,76.70
2023-01-08T03:42:25.217Z,76.67
2023-01-08T03:43:26.805Z,76.98
2023-01-08T03:44:28.537Z,76.65
2023-01-08T03:45:30.089Z,76.40
2023-01-08T03:46:32.619Z,76.30
2023-01-08T03:47:34.147Z,76.47
2023-01-08T03:48:35.634Z,76.47
2023-01-08T03:49:37.531Z,76.11
2023-01-08T03:50:40.736Z,76.60
2023-01-08T03:51:42.629Z,76.50
2023-01-08T03:52:44.137Z,76.69
2023-01-08T03:53:47.311Z,76.45
2023-01-08T03:54:48.811Z,76.29
2023-01-08T03:55:50.392Z,76.37
2023-01-08T03:56:52.013Z,76.20
2023-01-08T03:57:53.563Z,76.39
2023-01-08T03:58:55.058Z,76.05
2023-01-08T03:59:56.586Z,76.10
2023-01-08T04:00:58.143Z,75.84
2023-01-08T04:01:59.813Z,76.14
2023-01-08T04:03:01.351Z,75.90
2023-01-08T04:04:02.876Z,76.23
2023-01-08T04:05:04.577Z,75.99
2023-01-08T04:06:06.118Z,75.71
2023-01-08T04:07:07.644Z,76.45
2023-01-08T04:08:09.367Z,76.40
2023-01-08T04:09:10.849Z,75.98
2023-01-08T04:10:12.554Z,75.90
2023-01-08T04:11:14.015Z,76.08
2023-01-08T04:12:15.487Z,75.97
2023-01-08T04:13:17.046Z,76.03
2023-01-08T04:14:18.968Z,76.60
2023-01-08T04:15:20.444Z,76.44
2023-01-08T04:16:22.232Z,76.13
2023-01-08T04:17:23.731Z,76.41
2023-01-08T04:18:25.404Z,76.27
2023-01-08T04:19:26.911Z,76.62
2023-01-08T04:20:28.479Z,76.46
2023-01-08T04:21:30.043Z,76.80
2023-01-08T04:22:31.569Z,77.20
2023-01-08T04:23:33.092Z,77.07
2023-01-08T04:24:34.670Z,77.10
2023-01-08T04:25:38.298Z,77.29
2023-01-08T04:26:42.469Z,77.15
2023-01-08T04:27:43.997Z,77.20
2023-01-08T04:28:45.534Z,77.39
2023-01-08T04:29:47.027Z,77.71
2023-01-08T04:30:48.554Z,77.71
2023-01-08T04:31:50.122Z,77.60
2023-01-08T04:32:51.590Z,77.63
2023-01-08T04:33:53.071Z,77.81
2023-01-08T04:34:54.608Z,77.40
2023-01-08T04:35:56.092Z,77.55
2023-01-08T04:36:57.568Z,77.24
2023-01-08T04:37:59.069Z,77.42
2023-01-08T04:39:00.560Z,77.55
2023-01-08T04:40:02.138Z,77.25
2023-01-08T04:41:03.617Z,77.67
2023-01-08T04:42:05.215Z,78.22
2023-01-08T04:43:06.743Z,78.17
2023-01-08T04:44:08.919Z,78.17
2023-01-08T04:45:10.443Z,77.88
2023-01-08T04:46:12.042Z,77.91
2023-01-08T04:47:13.741Z,78.08
2023-01-08T04:48:15.209Z,77.43
2023-01-08T04:49:16.780Z,77.44
2023-01-08T04:50:18.366Z,77.34
2023-01-08T04:51:19.860Z,77.99
2023-01-08T04:52:21.385Z,77.71
2023-01-08T04:53:22.896Z,77.43
2023-01-08T04:54:24.375Z,78.03
2023-01-08T04:55:25.884Z,77.48
2023-01-08T04:56:27.495Z,78.05
2023-01-08T04:57:29.036Z,77.77
2023-01-08T04:58:30.559Z,77.66
2023-01-08T04:59:32.028Z,78.29
2023-01-08T05:00:33.575Z,78.51
2023-01-08T05:01:35.207Z,78.66
2023-01-08T05:02:37.113Z,78.69
2023-01-08T05:03:38.717Z,78.50
2023-01-08T05:04:40.225Z,79.18
2023-01-08T05:05:41.734Z,79.19
2023-01-08T05:06:43.201Z,79.58
2023-01-08T05:07:44.701Z,79.90
2023-01-08T05:08:46.247Z,80.04
2023-01-08T05:09:47.716Z,80.12
2023-01-08T05:10:49.196Z,79.76
2023-01-08T05:11:50.724Z,79.80
2023-01-08T05:12:52.265Z,79.63
2023-01-08T05:13:53.857Z,80.03
2023-01-08T05:14:55.373Z,80.24
2023-01-08T05:16:00.451Z,79.99
2023-01-08T05:17:01.981Z,80.09
2023-01-08T05:18:04.573Z,79.86
2023-01-08T05:19:06.164Z,79.47
2023-01-08T05:20:08.365Z,79.20
2023-01-08T05:21:09.870Z,79.19
2023-01-08T05:22:11.405Z,79.43
2023-01-08T05:23:12.903Z,79.20
2023-01-08T05:24:14.469Z,79.26
2023-01-08T05:25:15.927Z,79.02
2023-01-08T05:26:17.643Z,78.85
2023-01-08T05:27:19.195Z,78.80
2023-01-08T05:28:20.673Z,78.59
2023-01-08T05:29:22.272Z,78.46
2023-01-08T05:30:23.722Z,78.08
2023-01-08T05:31:25.336Z,78.18
2023-01-08T05:32:26.844Z,77.84
2023-01-08T05:33:28.449Z,78.34
2023-01-08T05:34:29.987Z,78.33
2023-01-08T05:35:31.482Z,77.82
2023-01-08T05:36:33.016Z,77.98
2023-01-08T05:37:34.866Z,77.72
2023-01-08T05:38:36.352Z,77.39
2023-01-08T05:39:37.880Z,77.45
2023-01-08T05:40:39.473Z,77.59
2023-01-08T05:41:40.959Z,77.67
2023-01-08T05:42:42.436Z,77.81
2023-01-08T05:43:43.980Z,77.88
2023-01-08T05:44:45.495Z,78.10
2023-01-08T05:45:47.037Z,78.04
2023-01-08T05:46:48.818Z,77.97
2023-01-08T05:47:50.304Z,78.06
2023-01-08T05:48:51.859Z,78.04
2023-01-08T05:49:53.397Z,77.92
2023-01-08T05:50:54.936Z,78.01
2023-01-08T05:51:56.457Z,77.68
2023-01-08T05:52:57.958Z,77.82
2023-01-08T05:53:59.444Z,77.80
2023-01-08T05:55:00.970Z,77.64
2023-01-08T05:56:02.811Z,77.86
2023-01-08T05:57:04.337Z,77.70
2023-01-08T05:58:05.906Z,77.94
2023-01-08T05:59:07.413Z,78.41
2023-01-08T06:00:09.707Z,78.15
2023-01-08T06:01:17.853Z,78.23
2023-01-08T06:02:19.431Z,78.48
2023-01-08T06:03:22.952Z,78.39
2023-01-08T06:04:24.601Z,78.72
2023-01-08T06:05:26.240Z,78.82
2023-01-08T06:06:27.751Z,79.23
2023-01-08T06:07:29.396Z,79.09
2023-01-08T06:08:30.923Z,79.09
2023-01-08T06:09:32.377Z,78.93
2023-01-08T06:10:34.092Z,79.24
2023-01-08T06:11:35.573Z,79.36
2023-01-08T06:12:37.087Z,79.59
2023-01-08T06:13:40.563Z,79.02
2023-01-08T06:14:42.157Z,79.36
2023-01-08T06:15:43.711Z,79.37
2023-01-08T06:16:45.231Z,79.64
2023-01-08T06:17:46.830Z,79.76
2023-01-08T06:18:48.416Z,79.62
2023-01-08T06:19:49.895Z,80.10
2023-01-08T06:20:51.376Z,80.41
2023-01-08T06:21:52.877Z,80.35
2023-01-08T06:22:54.471Z,80.14
2023-01-08T06:23:56.023Z,80.41
2023-01-08T06:24:57.491Z,80.12
2023-01-08T06:25:59.371Z,80.29
2023-01-08T06:27:00.875Z,80.19
2023-01-08T06:28:02.736Z,80.19
2023-01-08T06:29:04.219Z,80.20
2023-01-08T06:30:06.060Z,80.23
2023-01-08T06:31:07.657Z,79.82
2023-01-08T06:32:09.238Z,80.16
2023-01-08T06:33:10.763Z,80.66
2023-01-08T06:34:12.250Z,80.57
2023-01-08T06:35:13.753Z,80.54
2023-01-08T06:36:15.224Z,79.97
2023-01-08T06:37:16.756Z,80.45
2023-01-08T06:38:19.381Z,80.04
2023-01-08T06:39:21.048Z,80.04
2023-01-08T06:40:23.212Z,80.21
2023-01-08T06:41:24.755Z,80.09
2023-01-08T06:42:26.259Z,80.69
2023-01-08T06:43:27.747Z,80.09
2023-01-08T06:44:29.270Z,80.47
2023-01-08T06:45:30.889Z,80.42
2023-01-08T06:46:32.508Z,80.40
2023-01-08T06:47:34.165Z,79.72
2023-01-08T06:48:36.018Z,80.27
2023-01-08T06:49:37.508Z,80.31
2023-01-08T06:50:39.014Z,80.01
2023-01-08T06:51:40.495Z,80.09
2023-01-08T06:52:41.978Z,80.62
2023-01-08T06:53:43.581Z,80.90
2023-01-08T06:54:45.040Z,81.16
2023-01-08T06:55:46.538Z,81.22
2023-01-08T06:56:53.973Z,80.71
2023-01-08T06:57:56.433Z,81.10
2023-01-08T06:58:57.976Z,81.31
2023-01-08T06:59:59.568Z,81.26
2023-01-08T07:01:01.103Z,81.34
2023-01-08T07:02:02.797Z,81.53
2023-01-08T07:03:04.672Z,81.79
2023-01-08T07:04:06.277Z,81.69
2023-01-08T07:05:07.970Z,81.56
2023-01-08T07:06:13.261Z,81.74
2023-01-08T07:07:14.872Z,81.83
2023-01-08T07:08:16.684Z,81.83
2023-01-08T07:09:18.156Z,81.31
2023-01-08T07:10:20.236Z,81.41
2023-01-08T07:11:21.878Z,81.48
2023-01-08T07:12:23.401Z,81.16
2023-01-08T07:13:25.027Z,81.50
2023-01-08T07:14:26.547Z,81.88
2023-01-08T07:15:28.292Z,81.95
2023-01-08T07:16:29.855Z,82.29
2023-01-08T07:17:34.399Z,82.76
2023-01-08T07:18:36.229Z,82.78
2023-01-08T07:19:37.938Z,83.01
2023-01-08T07:20:39.481Z,83.33
2023-01-08T07:21:40.956Z,83.15
2023-01-08T07:22:42.501Z,83.48
2023-01-08T07:23:45.604Z,83.69
2023-01-08T07:24:47.077Z,83.29
2023-01-08T07:25:48.559Z,83.35
2023-01-08T07:26:50.062Z,83.14
2023-01-08T07:27:51.579Z,82.32
2023-01-08T07:28:53.108Z,82.54
2023-01-08T07:29:55.974Z,82.58
2023-01-08T07:30:57.575Z,82.72
2023-01-08T07:31:59.094Z,82.85
2023-01-08T07:33:00.911Z,82.88
2023-01-08T07:34:02.457Z,82.98
2023-01-08T07:35:04.086Z,82.82
2023-01-08T07:36:05.949Z,83.37
2023-01-08T07:37:07.461Z,83.68
2023-01-08T07:38:09.144Z,83.81
2023-01-08T07:39:10.683Z,83.62
2023-01-08T07:40:12.211Z,83.54
2023-01-08T07:41:13.698Z,83.40
2023-01-08T07:42:15.206Z,83.60
2023-01-08T07:43:16.769Z,83.58
2023-01-08T07:44:18.302Z,83.41
2023-01-08T07:45:19.839Z,83.47
2023-01-08T07:46:22.946Z,83.87
2023-01-08T07:47:24.521Z,83.88
2023-01-08T07:48:26.069Z,84.14
2023-01-08T07:49:27.538Z,83.90
2023-01-08T07:50:29.152Z,84.37
2023-01-08T07:51:30.668Z,83.86
2023-01-08T07:52:32.184Z,84.06
2023-01-08T07:53:34.203Z,84.04
2023-01-08T07:54:35.723Z,84.10
2023-01-08T07:55:37.263Z,83.68
2023-01-08T07:56:38.747Z,83.81
2023-01-08T07:57:40.281Z,83.95
2023-01-08T07:58:41.865Z,84.18
2023-01-08T07:59:43.400Z,84.02
2023-01-08T08:00:44.915Z,83.83
2023-01-08T08:01:46.634Z,83.55
2023-01-08T08:02:48.542Z,83.36
2023-01-08T08:03:50.149Z,83.39
2023-01-08T08:04:51.684Z,82.82
2023-01-08T08:05:53.289Z,83.38
2023-01-08T08:06:54.830Z,83.15
2023-01-08T08:07:56.408Z,83.35
2023-01-08T08:08:59.900Z,83.39
2023-01-08T08:10:01.546Z,83.60
2023-01-08T08:11:03.138Z,83.86
2023-01-08T08:12:04.688Z,84.11
2023-01-08T08:13:06.257Z,84.36
2023-01-08T08:14:07.767Z,84.14
2023-01-08T08:15:09.665Z,84.22
2023-01-08T08:16:11.362Z,84.58
2023-01-08T08:17:12.899Z,84.78
2023-01-08T08:18:14.425Z,84.79
2023-01-08T08:19:16.054Z,84.41
2023-01-08T08:20:17.545Z,84.27
2023-01-08T08:21:19.058Z,84.04
2023-01-08T08:22:20.548Z,84.05
2023-01-08T08:23:22.038Z,83.87
2023-01-08T08:24:23.593Z,83.54
2023-01-08T08:25:25.130Z,83.74
2023-01-08T08:26:26.667Z,83.68
2023-01-08T08:27:28.300Z,83.43
2023-01-08T08:28:29.889Z,83.33
2023-01-08T08:29:31.448Z,83.16
2023-01-08T08:30:33.562Z,83.16
2023-01-08T08:31:35.190Z,83.42
2023-01-08T08:32:36.785Z,83.72
2023-01-08T08:33:38.332Z,83.42
2023-01-08T08:34:39.963Z,83.44
2023-01-08T08:35:41.603Z,83.35
2023-01-08T08:36:43.145Z,83.22
2023-01-08T08:37:44.715Z,83.09
2023-01-08T08:38:46.240Z,83.38
2023-01-08T08:39:47.801Z,83.18
2023-01-08T08:40:49.352Z,82.94
2023-01-08T08:41:50.849Z,82.99
2023-01-08T08:42:58.790Z,83.06
2023-01-08T08:44:00.271Z,82.98
2023-01-08T08:45:01.839Z,83.06
2023-01-08T08:46:03.487Z,83.36
2023-01-08T08:47:07.020Z,83.13
2023-01-08T08:48:08.544Z,82.86
2023-01-08T08:49:10.100Z,83.07
2023-01-08T08:50:11.605Z,82.76
2023-01-08T08:51:14.047Z,83.31
2023-01-08T08:52:15.661Z,83.61
2023-01-08T08:53:17.133Z,83.62
2023-01-08T08:54:18.647Z,83.38
2023-01-08T08:55:20.417Z,83.46
2023-01-08T08:56:21.893Z,83.13
2023-01-08T08:57:23.801Z,83.08
2023-01-08T08:58:25.315Z,83.18
2023-01-08T08:59:26.970Z,82.90
2023-01-08T09:00:28.701Z,83.09
2023-01-08T09:01:30.469Z,83.09
2023-01-08T09:02:32.302Z,82.83
2023-01-08T09:03:34.138Z,82.82
2023-01-08T09:04:35.705Z,82.83
2023-01-08T09:05:37.393Z,82.74
2023-01-08T09:06:38.890Z,82.85
2023-01-08T09:07:40.487Z,83.13
2023-01-08T09:08:42.001Z,83.24
2023-01-08T09:09:43.528Z,82.97
2023-01-08T09:10:45.109Z,82.80
2023-01-08T09:11:46.835Z,83.35
2023-01-08T09:12:48.337Z,83.28
2023-01-08T09:13:49.883Z,83.11
2023-01-08T09:14:51.797Z,83.01
2023-01-08T09:15:53.382Z,82.98
2023-01-08T09:16:54.953Z,82.78
2023-01-08T09:17:56.561Z,82.32
2023-01-08T09:18:58.005Z,82.51
2023-01-08T09:19:59.565Z,82.37
2023-01-08T09:21:04.418Z,82.46
2023-01-08T09:22:05.903Z,82.20
2023-01-08T09:23:07.406Z,82.75
2023-01-08T09:24:09.050Z,82.76
2023-01-08T09:25:10.518Z,82.76
2023-01-08T09:26:12.016Z,83.09
2023-01-08T09:27:13.800Z,82.86
2023-01-08T09:28:17.163Z,82.77
2023-01-08T09:29:18.718Z,82.71
2023-01-08T09:30:20.244Z,82.83
2023-01-08T09:31:21.965Z,83.22
2023-01-08T09:32:23.470Z,83.43
2023-01-08T09:33:25.035Z,83.61
2023-01-08T09:34:26.546Z,83.62
2023-01-08T09:35:28.327Z,83.71
2023-01-08T09:36:29.845Z,83.65
2023-01-08T09:37:31.325Z,83.89
2023-01-08T09:38:32.843Z,83.87
2023-01-08T09:39:34.388Z,83.76
2023-01-08T09:40:42.989Z,83.68
2023-01-08T09:41:45.814Z,83.23
2023-01-08T09:42:49.712Z,83.52
2023-01-08T09:43:51.903Z,83.66
2023-01-08T09:44:53.891Z,83.66
2023-01-08T09:45:56.295Z,83.56
2023-01-08T09:46:57.879Z,83.41
2023-01-08T09:48:00.069Z,83.49
2023-01-08T09:49:04.054Z,83.59
2023-01-08T09:50:07.103Z,83.16
2023-01-08T09:51:15.278Z,82.79
2023-01-08T09:52:16.802Z,82.66
2023-01-08T09:53:18.369Z,82.98
2023-01-08T09:54:19.886Z,83.48
2023-01-08T09:55:21.409Z,83.48
2023-01-08T09:56:22.869Z,83.77
2023-01-08T09:57:24.432Z,84.04
2023-01-08T09:58:38.105Z,83.93
2023-01-08T09:59:39.688Z,83.77
2023-01-08T10:00:41.435Z,83.62
2023-01-08T10:01:44.676Z,83.41
2023-01-08T10:02:46.315Z,83.14
2023-01-08T10:03:49.524Z,83.07
2023-01-08T10:04:54.714Z,83.06
2023-01-08T10:05:56.222Z,82.48
2023-01-08T10:07:01.605Z,82.80
2023-01-08T10:08:04.101Z,82.55
2023-01-08T10:09:07.668Z,82.57
2023-01-08T10:10:23.742Z,82.53
2023-01-08T10:11:26.241Z,82.31
2023-01-08T10:12:28.814Z,82.63
2023-01-08T10:13:30.293Z,82.79
2023-01-08T10:14:32.987Z,83.20
2023-01-08T10:15:34.505Z,82.99
2023-01-08T10:16:36.697Z,82.93
2023-01-08T10:17:41.698Z,82.91
2023-01-08T10:18:43.227Z,83.18
2023-01-08T10:19:45.312Z,82.65
2023-01-08T10:20:46.808Z,82.92
2023-01-08T10:21:48.357Z,82.72
2023-01-08T10:22:49.975Z,82.64
2023-01-08T10:23:51.958Z,82.33
2023-01-08T10:24:53.514Z,82.85
2023-01-08T10:25:55.066Z,82.95
2023-01-08T10:27:04.630Z,82.91
2023-01-08T10:28:06.100Z,82.77
2023-01-08T10:29:17.317Z,82.73
2023-01-08T10:30:23.079Z,82.53
2023-01-08T10:31:24.610Z,82.64
2023-01-08T10:32:29.367Z,82.25
2023-01-08T10:33:31.390Z,82.03
2023-01-08T10:34:39.595Z,82.07
2023-01-08T10:35:41.407Z,82.24
2023-01-08T10:36:42.912Z,81.76
2023-01-08T10:37:44.716Z,81.98
2023-01-08T10:38:52.082Z,81.97
2023-01-08T10:39:54.360Z,82.43
2023-01-08T10:40:56.286Z,82.41
2023-01-08T10:41:58.675Z,82.48
2023-01-08T10:43:20.407Z,82.40
2023-01-08T10:44:22.131Z,82.37
2023-01-08T10:45:24.239Z,82.83
2023-01-08T10:46:28.476Z,82.40
2023-01-08T10:47:30.874Z,81.97
2023-01-08T10:48:39.146Z,82.93
2023-01-08T10:49:41.992Z,82.62
2023-01-08T10:50:43.510Z,83.49
2023-01-08T10:51:51.982Z,81.86
2023-01-08T10:53:03.202Z,81.73
2023-01-08T10:54:14.463Z,80.38
2023-01-08T10:55:18.747Z,80.98
2023-01-08T10:56:24.270Z,80.13
2023-01-08T10:57:29.373Z,79.23
2023-01-08T10:58:30.892Z,78.36
2023-01-08T10:59:32.509Z,78.57
2023-01-08T11:00:34.733Z,78.56
2023-01-08T11:01:36.368Z,78.12
2023-01-08T11:02:39.245Z,77.99
2023-01-08T11:03:41.175Z,77.90
2023-01-08T11:04:42.653Z,78.54
2023-01-08T11:05:44.188Z,78.21
2023-01-08T11:06:47.005Z,78.30
2023-01-08T11:07:49.386Z,78.37
2023-01-08T11:08:51.811Z,78.19
2023-01-08T11:09:53.837Z,78.37
2023-01-08T11:10:56.857Z,78.61
2023-01-08T11:11:58.683Z,78.18
2023-01-08T11:13:00.725Z,78.23
2023-01-08T11:14:03.166Z,78.25
2023-01-08T11:15:05.384Z,78.05
2023-01-08T11:16:07.607Z,77.73
2023-01-08T11:17:09.814Z,77.75
2023-01-08T11:18:21.340Z,77.80
2023-01-08T11:19:23.754Z,77.96
2023-01-08T11:20:29.111Z,78.22
2023-01-08T11:21:31.600Z,78.17
2023-01-08T11:22:33.069Z,77.37
2023-01-08T11:23:34.654Z,77.54
2023-01-08T11:24:36.323Z,76.87
2023-01-08T11:25:37.770Z,77.22
2023-01-08T11:26:40.446Z,77.29
2023-01-08T11:27:42.779Z,77.50
2023-01-08T11:28:44.245Z,77.57
2023-01-08T11:29:45.891Z,77.22
2023-01-08T11:30:50.213Z,77.53
2023-01-08T11:31:56.007Z,77.50
2023-01-08T11:33:09.390Z,77.69
2023-01-08T11:34:30.432Z,77.99
2023-01-08T11:35:34.655Z,77.94
2023-01-08T11:36:36.554Z,78.31
2023-01-08T11:37:39.280Z,77.97
2023-01-08T11:38:40.764Z,77.78
2023-01-08T11:39:42.269Z,77.70
2023-01-08T11:40:46.520Z,78.11
2023-01-08T11:42:06.698Z,78.52
2023-01-08T11:43:14.430Z,78.50
2023-01-08T11:44:25.208Z,78.31
2023-01-08T11:45:26.762Z,78.40
2023-01-08T11:46:31.346Z,78.27
2023-01-08T11:47:39.727Z,78.32
2023-01-08T11:48:44.056Z,78.10
2023-01-08T11:49:45.526Z,78.15
2023-01-08T11:50:54.776Z,78.08
2023-01-08T11:52:28.345Z,78.14
2023-01-08T11:53:36.725Z,77.90
2023-01-08T11:54:38.204Z,78.22
2023-01-08T11:55:43.592Z,79.04
2023-01-08T11:57:03.556Z,79.00
2023-01-08T11:58:05.013Z,78.80
2023-01-08T11:59:24.697Z,78.77
2023-01-08T12:00:26.215Z,79.10
2023-01-08T12:01:30.346Z,78.73
2023-01-08T12:02:41.468Z,78.55
2023-01-08T12:04:01.868Z,78.90
2023-01-08T12:05:06.280Z,78.64
2023-01-08T12:06:07.704Z,78.62
2023-01-08T12:07:15.119Z,78.89
2023-01-08T12:08:22.301Z,78.87
2023-01-08T12:09:36.072Z,78.60
2023-01-08T12:10:56.265Z,78.53
2023-01-08T12:12:00.469Z,78.42
2023-01-08T12:13:07.457Z,78.49
2023-01-08T12:14:18.288Z,78.38
2023-01-08T12:15:20.641Z,78.58
2023-01-08T12:16:24.965Z,78.10
2023-01-08T12:17:34.378Z,77.90
2023-01-08T12:18:35.928Z,78.20
2023-01-08T12:19:52.508Z,78.30
2023-01-08T12:20:56.767Z,78.59
2023-01-08T12:22:07.281Z,78.43
2023-01-08T12:23:08.767Z,78.44
2023-01-08T12:24:22.773Z,78.33
2023-01-08T12:25:43.122Z,78.39
2023-01-08T12:27:01.996Z,78.60
2023-01-08T12:28:21.908Z,78.29
2023-01-08T12:29:35.620Z,78.27
2023-01-08T12:30:37.084Z,77.94
2023-01-08T12:31:51.434Z,77.98
2023-01-08T12:33:05.971Z,77.90
2023-01-08T12:34:09.779Z,77.97
2023-01-08T12:35:13.553Z,78.14
2023-01-08T12:36:29.875Z,77.87
2023-01-08T12:37:34.180Z,78.37
2023-01-08T12:38:36.220Z,78.66
2023-01-08T12:39:43.850Z,78.91
2023-01-08T12:40:46.999Z,78.75
2023-01-08T12:41:48.495Z,78.96
2023-01-08T12:42:59.967Z,78.77
2023-01-08T12:44:05.315Z,78.84
2023-01-08T12:45:07.319Z,79.21
2023-01-08T12:46:08.905Z,79.34
2023-01-08T12:47:13.121Z,79.37
2023-01-08T12:48:18.589Z,79.44
2023-01-08T12:49:21.602Z,78.96
2023-01-08T12:50:25.974Z,79.08
2023-01-08T12:51:30.866Z,79.28
2023-01-08T12:52:36.907Z,79.56
2023-01-08T12:54:04.451Z,79.39
2023-01-08T12:55:27.218Z,78.98
2023-01-08T12:56:47.573Z,78.81
2023-01-08T12:57:51.830Z,79.02
2023-01-08T12:59:12.487Z,78.90
2023-01-08T13:00:16.840Z,79.02
2023-01-08T13:01:21.314Z,79.00
2023-01-08T13:02:26.049Z,79.06
2023-01-08T13:03:28.323Z,79.14
2023-01-08T13:04:38.691Z,78.72
2023-01-08T13:05:41.915Z,79.06
2023-01-08T13:06:50.262Z,78.73
2023-01-08T13:07:52.999Z,78.86
2023-01-08T13:08:55.188Z,78.98
2023-01-08T13:09:57.308Z,78.96
2023-01-08T13:10:58.880Z,78.90
2023-01-08T13:12:00.450Z,78.97
2023-01-08T13:13:02.058Z,78.45
2023-01-08T13:14:07.425Z,78.39
2023-01-08T13:15:17.409Z,78.22
2023-01-08T13:16:20.126Z,78.55
2023-01-08T13:17:22.200Z,78.42
2023-01-08T13:18:23.720Z,78.79
2023-01-08T13:19:25.897Z,78.37
2023-01-08T13:20:28.151Z,78.12
2023-01-08T13:21:30.845Z,78.28
2023-01-08T13:22:33.234Z,78.48
2023-01-08T13:23:38.380Z,78.25
2023-01-08T13:24:41.089Z,78.14
2023-01-08T13:25:50.597Z,78.54
2023-01-08T13:26:52.163Z,78.17
2023-01-08T13:27:53.626Z,78.21
2023-01-08T13:28:55.189Z,78.40
2023-01-08T13:29:58.169Z,78.40
2023-01-08T13:31:29.047Z,78.47
2023-01-08T13:32:38.416Z,78.68
2023-01-08T13:33:41.329Z,78.52
2023-01-08T13:34:42.833Z,78.83
2023-01-08T13:35:44.299Z,78.84